createdAt,value
2023-03-25T00:00:24.780Z,98854.69
2023-03-25T00:02:52.752Z,98845.28
2023-03-25T00:05:22.222Z,98846.16
2023-03-25T00:07:52.360Z,98839.31
2023-03-25T00:10:19.656Z,98844.56
2023-03-25T00:12:46.969Z,98826.50
2023-03-25T00:15:16.619Z,98831.66
2023-03-25T00:17:44.885Z,98835.13
2023-03-25T00:20:12.779Z,98832.47
2023-03-25T00:22:42.754Z,98832.44
2023-03-25T00:25:13.737Z,98839.47
2023-03-25T00:27:40.746Z,98819.63
2023-03-25T00:30:08.628Z,98820.59
2023-03-25T00:32:35.740Z,98810.31
2023-03-25T00:35:02.747Z,98800.88
2023-03-25T00:37:30.404Z,98781.81
2023-03-25T00:39:57.380Z,98800.94
2023-03-25T00:42:27.298Z,98808.69
2023-03-25T00:44:54.611Z,98797.41
2023-03-25T00:47:22.985Z,98786.25
2023-03-25T00:49:51.862Z,98768.88
2023-03-25T00:52:19.517Z,98790.53
2023-03-25T00:54:46.642Z,98783.56
2023-03-25T00:57:13.679Z,98777.44
2023-03-25T00:59:40.740Z,98768.75
2023-03-25T01:02:07.691Z,98774.88
2023-03-25T01:04:35.706Z,98785.16
2023-03-25T01:07:03.899Z,98774.00
2023-03-25T01:09:31.322Z,98766.94
2023-03-25T01:11:58.949Z,98769.63
2023-03-25T01:14:27.812Z,98770.50
2023-03-25T01:16:55.040Z,98746.38
2023-03-25T01:19:23.542Z,98718.63
2023-03-25T01:21:51.077Z,98751.56
2023-03-25T01:24:18.722Z,98755.09
2023-03-25T01:26:46.181Z,98748.31
2023-03-25T01:29:15.564Z,98745.78
2023-03-25T01:31:42.624Z,98745.06
2023-03-25T01:34:11.205Z,98737.31
2023-03-25T01:36:40.150Z,98758.94
2023-03-25T01:39:09.101Z,98750.41
2023-03-25T01:41:49.012Z,98743.47
2023-03-25T01:44:19.988Z,98739.34
2023-03-25T01:46:53.735Z,98733.38
2023-03-25T01:49:44.606Z,98726.53
2023-03-25T01:52:16.571Z,98700.66
2023-03-25T01:54:45.598Z,98708.56
2023-03-25T01:57:19.708Z,98682.69
2023-03-25T01:59:47.451Z,98702.56
2023-03-25T02:02:17.853Z,98676.66
2023-03-25T02:05:27.748Z,98696.66
2023-03-25T02:07:55.030Z,98655.94
2023-03-25T02:10:22.174Z,98630.91
2023-03-25T02:12:49.748Z,98686.34
2023-03-25T02:15:18.745Z,98662.13
2023-03-25T02:17:57.212Z,98681.19
2023-03-25T02:21:03.296Z,98687.28
2023-03-25T02:24:05.759Z,98682.00
2023-03-25T02:26:56.069Z,98678.53
2023-03-25T02:29:25.798Z,98676.81
2023-03-25T02:32:42.503Z,98674.31
2023-03-25T02:35:26.219Z,98656.09
2023-03-25T02:38:24.856Z,98673.47
2023-03-25T02:40:56.469Z,98667.41
2023-03-25T02:43:39.722Z,98656.25
2023-03-25T02:46:12.802Z,98627.66
2023-03-25T02:48:49.909Z,98634.66
2023-03-25T02:51:30.534Z,98634.72
2023-03-25T02:54:03.035Z,98623.50
2023-03-25T02:56:33.075Z,98635.59
2023-03-25T02:59:02.520Z,98626.13
2023-03-25T03:01:29.540Z,98620.91
2023-03-25T03:03:57.133Z,98616.75
2023-03-25T03:06:25.832Z,98614.09
2023-03-25T03:09:06.798Z,98637.53
2023-03-25T03:11:45.942Z,98621.19
2023-03-25T03:14:27.901Z,98609.16
2023-03-25T03:17:01.173Z,98611.78
2023-03-25T03:19:55.422Z,98602.31
2023-03-25T03:22:44.544Z,98603.28
2023-03-25T03:25:36.980Z,98598.13
2023-03-25T03:28:10.483Z,98590.44
2023-03-25T03:30:48.496Z,98581.00
2023-03-25T03:33:25.729Z,98583.59
2023-03-25T03:35:58.734Z,98577.66
2023-03-25T03:38:29.774Z,98552.56
2023-03-25T03:41:01.450Z,98537.03
2023-03-25T03:43:41.444Z,98553.47
2023-03-25T03:46:22.793Z,98542.25
2023-03-25T03:48:54.712Z,98543.13
2023-03-25T03:51:37.603Z,98547.47
2023-03-25T03:54:25.374Z,98547.50
2023-03-25T03:57:17.973Z,98546.66
2023-03-25T03:59:59.977Z,98530.31
2023-03-25T04:02:43.206Z,98521.75
2023-03-25T04:05:14.013Z,98522.59
2023-03-25T04:08:04.009Z,98517.47
2023-03-25T04:10:42.382Z,98520.91
2023-03-25T04:13:14.054Z,98522.66
2023-03-25T04:15:42.817Z,98468.28
2023-03-25T04:18:09.822Z,98516.66
2023-03-25T04:20:36.985Z,98505.41
2023-03-25T04:23:09.934Z,98504.59
2023-03-25T04:25:36.981Z,98508.06
2023-03-25T04:28:04.085Z,98500.34
2023-03-25T04:30:31.206Z,98498.59
2023-03-25T04:32:58.214Z,98493.44
2023-03-25T04:35:26.018Z,98491.75
2023-03-25T04:37:57.637Z,98472.75
2023-03-25T04:40:25.990Z,98434.75
2023-03-25T04:42:53.462Z,98464.97
2023-03-25T04:45:21.767Z,98479.69
2023-03-25T04:47:49.968Z,98465.06
2023-03-25T04:50:29.565Z,98443.50
2023-03-25T04:52:58.332Z,98405.56
2023-03-25T04:55:25.956Z,98446.13
2023-03-25T04:57:54.692Z,98444.41
2023-03-25T05:00:24.667Z,98428.91
2023-03-25T05:02:54.385Z,98436.69
2023-03-25T05:05:24.493Z,98437.56
2023-03-25T05:07:54.075Z,98437.56
2023-03-25T05:10:24.012Z,98419.47
2023-03-25T05:12:57.768Z,98399.63
2023-03-25T05:15:24.710Z,98418.59
2023-03-25T05:17:51.679Z,98412.56
2023-03-25T05:20:19.196Z,98421.22
2023-03-25T05:22:46.158Z,98419.47
2023-03-25T05:25:13.120Z,98422.06
2023-03-25T05:27:40.286Z,98424.66
2023-03-25T05:30:08.226Z,98422.06
2023-03-25T05:32:35.348Z,98442.75
2023-03-25T05:35:03.639Z,98433.25
2023-03-25T05:37:30.905Z,98427.22
2023-03-25T05:39:58.063Z,98427.25
2023-03-25T05:42:25.729Z,98433.25
2023-03-25T05:44:53.840Z,98436.69
2023-03-25T05:47:25.460Z,98418.59
2023-03-25T05:49:54.037Z,98416.84
2023-03-25T05:52:24.780Z,98412.50
2023-03-25T05:54:52.142Z,98412.50
2023-03-25T05:57:19.173Z,98403.88
2023-03-25T05:59:46.465Z,98414.19
2023-03-25T06:02:16.124Z,98420.22
2023-03-25T06:04:43.791Z,98416.78
2023-03-25T06:07:14.798Z,98411.59
2023-03-25T06:09:46.801Z,98411.59
2023-03-25T06:12:20.062Z,98403.81
2023-03-25T06:14:48.217Z,98401.13
2023-03-25T06:17:19.067Z,98400.19
2023-03-25T06:19:46.116Z,98399.16
2023-03-25T06:22:13.085Z,98399.88
2023-03-25T06:24:41.505Z,98399.69
2023-03-25T06:27:18.202Z,98387.38
2023-03-25T06:29:47.368Z,98385.53
2023-03-25T06:32:15.946Z,98355.22
2023-03-25T06:34:43.559Z,98380.22
2023-03-25T06:37:10.770Z,98377.75
2023-03-25T06:39:38.103Z,98381.31
2023-03-25T06:42:13.173Z,98363.28
2023-03-25T06:45:07.734Z,98390.00
2023-03-25T06:47:42.176Z,98350.38
2023-03-25T06:50:09.579Z,98382.41
2023-03-25T06:52:37.265Z,98371.25
2023-03-25T06:55:04.758Z,98391.03
2023-03-25T06:57:31.741Z,98373.88
2023-03-25T06:59:58.785Z,98391.13
2023-03-25T07:02:25.812Z,98375.53
2023-03-25T07:04:52.900Z,98379.00
2023-03-25T07:07:19.967Z,98384.25
2023-03-25T07:09:51.418Z,98379.13
2023-03-25T07:12:18.498Z,98356.78
2023-03-25T07:14:54.262Z,98380.06
2023-03-25T07:17:40.754Z,98368.06
2023-03-25T07:20:26.552Z,98387.06
2023-03-25T07:22:56.698Z,98378.38
2023-03-25T07:25:23.751Z,98374.13
2023-03-25T07:27:51.812Z,98331.84
2023-03-25T07:30:19.955Z,98372.34
2023-03-25T07:32:47.156Z,98354.25
2023-03-25T07:35:14.211Z,98356.81
2023-03-25T07:37:41.223Z,98364.56
2023-03-25T07:40:08.837Z,98381.88
2023-03-25T07:42:37.608Z,98368.91
2023-03-25T07:48:02.300Z,98374.16
2023-03-25T07:50:29.406Z,98368.97
2023-03-25T07:52:56.514Z,98377.59
2023-03-25T07:55:23.562Z,98375.03
2023-03-25T07:57:50.588Z,98377.66
2023-03-25T08:00:17.680Z,98380.19
2023-03-25T08:02:44.731Z,98370.75
2023-03-25T08:05:12.554Z,98375.84
2023-03-25T08:07:39.872Z,98358.59
2023-03-25T08:10:07.504Z,98375.84
2023-03-25T08:12:34.458Z,98377.59
2023-03-25T08:15:01.519Z,98360.34
2023-03-25T08:17:29.247Z,98372.38
2023-03-25T08:19:56.508Z,98386.19
2023-03-25T08:22:45.025Z,98375.03
2023-03-25T08:25:12.255Z,98356.06
2023-03-25T08:28:35.319Z,98410.31
2023-03-25T08:31:08.982Z,98420.69
2023-03-25T08:33:41.138Z,98403.44
2023-03-25T08:36:20.036Z,98396.50
2023-03-25T08:38:47.465Z,98407.72
2023-03-25T08:41:14.870Z,98389.59
2023-03-25T08:43:43.542Z,98396.50
2023-03-25T08:46:11.745Z,98410.34
2023-03-25T08:48:39.209Z,98411.19
2023-03-25T08:51:25.240Z,98402.56
2023-03-25T08:54:11.172Z,98401.69
2023-03-25T08:56:56.605Z,98404.28
2023-03-25T08:59:42.355Z,98408.56
2023-03-25T09:02:13.453Z,98408.56
2023-03-25T09:04:41.015Z,98416.34
2023-03-25T09:07:12.619Z,98414.56
2023-03-25T09:09:42.785Z,98405.91
2023-03-25T09:12:10.333Z,98411.97
2023-03-25T09:14:37.657Z,98410.28
2023-03-25T09:17:06.519Z,98403.38
2023-03-25T09:22:58.719Z,98396.47
2023-03-25T09:25:46.353Z,98418.00
2023-03-25T09:28:32.129Z,98407.59
2023-03-25T09:30:59.314Z,98394.63
2023-03-25T09:33:27.621Z,98392.81
2023-03-25T09:35:55.194Z,98397.97
2023-03-25T09:38:22.617Z,98392.72
2023-03-25T09:40:49.689Z,98373.81
2023-03-25T09:43:34.973Z,98424.56
2023-03-25T09:46:39.274Z,98437.53
2023-03-25T09:49:15.063Z,98389.31
2023-03-25T09:52:03.071Z,98444.47
2023-03-25T09:54:48.757Z,98439.28
2023-03-25T09:57:22.763Z,98440.16
2023-03-25T09:59:51.592Z,98389.25
2023-03-25T10:02:27.890Z,98434.91
2023-03-25T10:05:18.618Z,98429.66
2023-03-25T10:08:17.908Z,98420.97
2023-03-25T10:10:49.303Z,98422.72
2023-03-25T10:13:35.190Z,98439.06
2023-03-25T10:16:19.826Z,98434.69
2023-03-25T10:19:26.948Z,98432.03
2023-03-25T10:22:03.377Z,98428.53
2023-03-25T10:24:53.652Z,98386.34
2023-03-25T10:27:43.313Z,98434.47
2023-03-25T10:30:14.202Z,98443.06
2023-03-25T10:32:48.445Z,98441.28
2023-03-25T10:35:27.459Z,98439.50
2023-03-25T10:38:02.035Z,98439.41
2023-03-25T10:40:35.167Z,98435.03
2023-03-25T10:43:23.555Z,98435.75
2023-03-25T10:45:54.844Z,98438.34
2023-03-25T10:48:25.666Z,98432.13
2023-03-25T10:50:59.103Z,98348.50
2023-03-25T10:53:28.048Z,98374.16
2023-03-25T11:02:18.808Z,98411.72
2023-03-25T11:04:49.370Z,98432.34
2023-03-25T11:07:36.261Z,98421.75
2023-03-25T11:10:17.588Z,98430.34
2023-03-25T11:12:48.488Z,98411.47
2023-03-25T11:15:29.605Z,98424.38
2023-03-25T11:18:40.222Z,98421.66
2023-03-25T11:21:13.870Z,98428.63
2023-03-25T11:23:47.119Z,98429.63
2023-03-25T11:26:27.273Z,98430.53
2023-03-25T11:29:16.915Z,98443.69
2023-03-25T11:31:44.261Z,98440.25
2023-03-25T11:34:11.471Z,98445.53
2023-03-25T11:36:40.737Z,98437.81
2023-03-25T11:39:25.298Z,98410.19
2023-03-25T11:41:52.654Z,98420.56
2023-03-25T11:44:29.281Z,98419.75
2023-03-25T11:49:54.577Z,98419.81
2023-03-25T11:53:02.032Z,98440.63
2023-03-25T11:55:44.046Z,98451.91
2023-03-25T12:01:46.653Z,98443.34
2023-03-25T12:04:19.731Z,98440.72
2023-03-25T12:07:08.769Z,98451.94
2023-03-25T12:09:36.918Z,98438.19
2023-03-25T12:12:26.013Z,98439.84
2023-03-25T12:15:18.232Z,98443.31
2023-03-25T12:18:10.077Z,98444.19
2023-03-25T12:21:13.594Z,98452.78
2023-03-25T12:27:32.341Z,98458.88
2023-03-25T12:30:09.913Z,98474.50
2023-03-25T12:33:11.931Z,98468.41
2023-03-25T12:35:47.452Z,98438.13
2023-03-25T12:38:29.575Z,98464.00
2023-03-25T12:41:25.771Z,98465.69
2023-03-25T12:44:32.901Z,98457.00
2023-03-25T12:47:23.279Z,98449.31
2023-03-25T12:49:55.900Z,98455.38
2023-03-25T12:52:59.895Z,98450.13
2023-03-25T12:56:09.952Z,98450.09
2023-03-25T12:58:50.155Z,98447.53
2023-03-25T13:01:52.874Z,98431.16
2023-03-25T13:04:35.771Z,98448.31
2023-03-25T13:07:10.478Z,98429.41
2023-03-25T13:10:14.846Z,98461.34
2023-03-25T13:12:49.776Z,98450.09
2023-03-25T13:15:35.217Z,98438.91
2023-03-25T13:18:17.130Z,98437.97
2023-03-25T13:21:27.920Z,98442.25
2023-03-25T13:24:07.328Z,98430.03
2023-03-25T13:26:36.285Z,98436.09
2023-03-25T13:29:07.093Z,98423.19
2023-03-25T13:31:38.100Z,98419.53
2023-03-25T13:34:30.218Z,98424.53
2023-03-25T13:37:31.871Z,98434.91
2023-03-25T13:40:13.645Z,98429.66
2023-03-25T13:43:08.752Z,98437.34
2023-03-25T13:49:23.277Z,98436.34
2023-03-25T13:55:06.700Z,98443.47
2023-03-25T13:57:58.136Z,98450.47
2023-03-25T14:00:34.109Z,98453.03
2023-03-25T14:03:42.883Z,98447.78
2023-03-25T14:06:29.612Z,98446.84
2023-03-25T14:09:11.377Z,98447.84
2023-03-25T14:11:47.490Z,98450.47
2023-03-25T14:14:18.348Z,98430.81
2023-03-25T14:16:52.267Z,98451.50
2023-03-25T14:19:58.418Z,98452.50
2023-03-25T14:22:32.013Z,98451.59
2023-03-25T14:25:00.305Z,98445.53
2023-03-25T14:28:06.063Z,98445.53
2023-03-25T14:30:33.822Z,98443.94
2023-03-25T14:33:04.037Z,98448.31
2023-03-25T14:35:34.161Z,98467.41
2023-03-25T14:38:10.198Z,98464.78
2023-03-25T14:40:54.657Z,98458.75
2023-03-25T14:43:49.130Z,98459.59
2023-03-25T14:46:37.596Z,98469.97
2023-03-25T14:49:05.920Z,98472.63
2023-03-25T14:51:35.020Z,98473.53
2023-03-25T14:54:21.630Z,98470.16
2023-03-25T15:00:04.385Z,98471.97
2023-03-25T15:02:33.659Z,98439.31
2023-03-25T15:05:13.859Z,98457.38
2023-03-25T15:08:04.969Z,98472.09
2023-03-25T15:10:36.642Z,98480.84
2023-03-25T15:13:07.631Z,98479.97
2023-03-25T15:15:57.586Z,98478.19
2023-03-25T15:18:37.288Z,98476.50
2023-03-25T15:21:23.117Z,98473.09
2023-03-25T15:24:13.432Z,98482.59
2023-03-25T15:27:00.032Z,98474.81
2023-03-25T15:30:03.087Z,98478.28
2023-03-25T15:32:45.411Z,98483.53
2023-03-25T15:35:32.682Z,98480.97
2023-03-25T15:38:30.621Z,98487.06
2023-03-25T15:41:03.663Z,98484.59
2023-03-25T15:43:59.649Z,98501.03
2023-03-25T15:46:42.683Z,98501.13
2023-03-25T15:49:31.489Z,98499.41
2023-03-25T15:52:10.944Z,98500.28
2023-03-25T15:55:16.225Z,98501.09
2023-03-25T15:57:49.264Z,98487.38
2023-03-25T16:00:25.462Z,98400.47
2023-03-25T16:02:58.517Z,98497.72
2023-03-25T16:05:26.549Z,98504.72
2023-03-25T16:07:54.111Z,98490.97
2023-03-25T16:10:34.297Z,98496.97
2023-03-25T16:13:04.476Z,98503.09
2023-03-25T16:15:33.981Z,98501.38
2023-03-25T16:18:22.176Z,98507.47
2023-03-25T16:21:08.469Z,98519.53
2023-03-25T16:26:39.174Z,98514.44
2023-03-25T16:29:17.740Z,98528.31
2023-03-25T16:31:56.556Z,98511.88
2023-03-25T16:34:24.487Z,98519.69
2023-03-25T16:36:53.075Z,98520.59
2023-03-25T16:39:21.540Z,98526.66
2023-03-25T16:41:59.442Z,98506.81
2023-03-25T16:44:26.822Z,98505.97
2023-03-25T16:47:12.398Z,98501.69
2023-03-25T16:49:58.136Z,98542.28
2023-03-25T16:52:46.317Z,98543.13
2023-03-25T16:55:29.972Z,98530.22
2023-03-25T16:58:00.139Z,98534.53
2023-03-25T17:00:39.524Z,98543.19
2023-03-25T17:05:52.340Z,98560.50
2023-03-25T17:08:21.486Z,98570.03
2023-03-25T17:10:56.045Z,98555.41
2023-03-25T17:13:30.551Z,98576.13
2023-03-25T17:15:58.155Z,98555.41
2023-03-25T17:21:30.440Z,98588.19
2023-03-25T17:24:24.014Z,98586.44
2023-03-25T17:27:19.944Z,98586.47
2023-03-25T17:30:20.876Z,98586.50
2023-03-25T17:32:48.438Z,98593.47
2023-03-25T17:35:30.642Z,98603.78
2023-03-25T17:37:58.141Z,98606.41
2023-03-25T17:40:27.139Z,98604.72
2023-03-25T17:42:55.538Z,98603.84
2023-03-25T17:45:25.668Z,98583.13
2023-03-25T17:47:52.710Z,98612.47
2023-03-25T17:50:28.503Z,98613.38
2023-03-25T17:52:55.479Z,98609.94
2023-03-25T17:55:22.884Z,98562.50
2023-03-25T17:58:08.391Z,98613.41
2023-03-25T18:00:35.971Z,98612.53
2023-03-25T18:03:10.505Z,98609.94
2023-03-25T18:05:37.492Z,98600.44
2023-03-25T18:08:04.624Z,98619.44
2023-03-25T18:10:32.664Z,98617.72
2023-03-25T18:12:59.631Z,98627.19
2023-03-25T18:15:26.727Z,98626.31
2023-03-25T18:18:16.801Z,98637.59
2023-03-25T18:20:44.491Z,98634.97
2023-03-25T18:23:12.976Z,98621.19
2023-03-25T18:25:41.100Z,98637.59
2023-03-25T18:28:28.770Z,98636.72
2023-03-25T18:30:56.779Z,98633.22
2023-03-25T18:33:24.452Z,98616.88
2023-03-25T18:35:56.713Z,98637.59
2023-03-25T18:38:26.421Z,98642.78
2023-03-25T18:40:55.081Z,98622.03
2023-03-25T18:43:22.875Z,98630.66
2023-03-25T18:46:13.193Z,98644.47
2023-03-25T18:49:36.189Z,98638.44
2023-03-25T18:52:21.478Z,98643.63
2023-03-25T18:54:48.429Z,98651.41
2023-03-25T18:57:33.716Z,98653.19
2023-03-25T19:00:00.823Z,98650.56
2023-03-25T19:02:30.968Z,98647.16
2023-03-25T19:05:00.968Z,98659.22
2023-03-25T19:07:28.858Z,98638.50
2023-03-25T19:09:55.805Z,98658.34
2023-03-25T19:12:22.920Z,98655.78
2023-03-25T19:14:49.913Z,98622.13
2023-03-25T19:17:16.925Z,98653.16
2023-03-25T19:20:20.960Z,98654.06
2023-03-25T19:26:29.005Z,98659.25
2023-03-25T19:28:56.113Z,98638.53
2023-03-25T19:31:23.178Z,98651.53
2023-03-25T19:33:51.475Z,98647.22
2023-03-25T19:36:19.660Z,98628.22
2023-03-25T19:38:46.749Z,98652.44
2023-03-25T19:41:16.363Z,98652.44
2023-03-25T19:43:43.787Z,98642.91
2023-03-25T19:46:31.836Z,98650.72
2023-03-25T19:48:59.020Z,98657.63
2023-03-25T19:51:26.033Z,98658.50
2023-03-25T19:53:53.042Z,98657.66
2023-03-25T19:56:20.072Z,98656.78
2023-03-25T19:59:05.487Z,98643.78
2023-03-25T20:01:51.422Z,98667.16
2023-03-25T20:04:18.594Z,98660.25
2023-03-25T20:06:45.547Z,98654.19
2023-03-25T20:09:13.352Z,98664.56
2023-03-25T20:11:40.329Z,98649.00
2023-03-25T20:14:07.300Z,98656.78
2023-03-25T20:16:35.000Z,98656.78
2023-03-25T20:19:02.492Z,98661.97
2023-03-25T20:21:48.342Z,98670.59
2023-03-25T20:24:33.766Z,98665.44
2023-03-25T20:30:06.187Z,98670.63
2023-03-25T20:32:40.482Z,98611.03
2023-03-25T20:35:11.309Z,98667.19
2023-03-25T20:37:40.036Z,98651.63
2023-03-25T20:40:11.731Z,98678.41
2023-03-25T20:42:41.444Z,98683.59
2023-03-25T20:45:11.095Z,98674.94
2023-03-25T20:47:57.325Z,98674.09
2023-03-25T20:50:24.833Z,98679.28
2023-03-25T20:53:10.838Z,98676.69
2023-03-25T20:55:37.915Z,98673.22
2023-03-25T20:58:05.952Z,98662.88
2023-03-25T21:00:34.321Z,98679.28
2023-03-25T21:03:02.057Z,98674.09
2023-03-25T21:05:29.317Z,98676.69
2023-03-25T21:07:56.277Z,98674.09
2023-03-25T21:10:23.530Z,98677.56
2023-03-25T21:12:50.573Z,98678.44
2023-03-25T21:15:36.475Z,98668.06
2023-03-25T21:18:22.098Z,98661.16
2023-03-25T21:21:26.155Z,98672.38
2023-03-25T21:24:12.490Z,98654.22
2023-03-25T21:27:16.824Z,98674.09
2023-03-25T21:29:44.253Z,98673.22
2023-03-25T21:32:30.681Z,98674.97
2023-03-25T21:34:59.790Z,98673.22
2023-03-25T21:37:27.556Z,98668.06
2023-03-25T21:39:57.520Z,98668.91
2023-03-25T21:42:24.579Z,98673.25
2023-03-25T21:44:51.561Z,98671.50
2023-03-25T21:47:36.965Z,98668.03
2023-03-25T21:50:09.762Z,98672.38
2023-03-25T21:52:55.810Z,98682.72
2023-03-25T21:55:23.068Z,98700.88
2023-03-25T21:57:51.533Z,98683.59
2023-03-25T22:00:19.645Z,98686.16
2023-03-25T22:02:47.429Z,98693.94
2023-03-25T22:05:16.371Z,98690.50
2023-03-25T22:07:43.754Z,98693.97
2023-03-25T22:10:11.259Z,98693.09
2023-03-25T22:12:39.405Z,98689.63
2023-03-25T22:15:07.104Z,98698.25
2023-03-25T22:17:34.121Z,98691.34
2023-03-25T22:20:01.233Z,98702.59
2023-03-25T22:22:30.217Z,98699.13
2023-03-25T22:25:16.131Z,98693.06
2023-03-25T22:27:43.121Z,98694.81
2023-03-25T22:30:10.749Z,98693.94
2023-03-25T22:32:37.824Z,98691.34
2023-03-25T22:35:05.442Z,98684.44
2023-03-25T22:37:35.000Z,98688.75
2023-03-25T22:40:01.992Z,98685.31
2023-03-25T22:42:29.777Z,98682.72
2023-03-25T22:44:56.714Z,98646.41
2023-03-25T22:47:23.683Z,98677.53
2023-03-25T22:50:09.043Z,98659.38
2023-03-25T22:52:54.723Z,98670.63
2023-03-25T22:55:58.796Z,98681.84
2023-03-25T22:58:44.727Z,98680.97
2023-03-25T23:01:31.087Z,98678.38
2023-03-25T23:03:58.178Z,98674.94
2023-03-25T23:06:26.584Z,98672.34
2023-03-25T23:08:57.994Z,98672.34
2023-03-25T23:11:27.560Z,98666.28
2023-03-25T23:14:03.691Z,98665.44
2023-03-25T23:16:32.266Z,98650.75
2023-03-25T23:19:17.630Z,98669.75
2023-03-25T23:21:44.770Z,98667.13
2023-03-25T23:24:11.880Z,98667.16
2023-03-25T23:29:25.418Z,98664.56
2023-03-25T23:31:52.402Z,98661.09
2023-03-25T23:34:19.396Z,98636.91
2023-03-25T23:36:46.875Z,98655.94
2023-03-25T23:39:17.174Z,98588.53
2023-03-25T23:41:44.286Z,98658.50
2023-03-25T23:44:11.537Z,98661.06
2023-03-25T23:52:11.453Z,98636.91
2023-03-25T23:54:39.849Z,98655.91
2023-03-25T23:57:07.118Z,98655.91
